createdAt,value
2022-09-30T12:09:06.166Z,56224.00
2022-09-30T12:10:06.134Z,54688.00
2022-09-30T12:11:06.128Z,55360.00
2022-09-30T12:12:06.097Z,56256.00
2022-09-30T12:13:06.080Z,55392.00
2022-09-30T12:14:06.073Z,54496.00
2022-09-30T12:15:06.059Z,56096.00
2022-09-30T12:16:06.096Z,57312.00
2022-09-30T12:17:06.022Z,55488.00
2022-09-30T12:18:06.008Z,54272.00
2022-09-30T12:19:05.990Z,50624.00
2022-09-30T12:20:05.977Z,48032.00
2022-09-30T12:21:05.972Z,48864.00
2022-09-30T12:22:05.941Z,50656.00
2022-09-30T12:23:05.916Z,50752.00
2022-09-30T12:24:05.917Z,52960.00
2022-09-30T12:25:05.949Z,55008.00
2022-09-30T12:26:05.897Z,53664.00
2022-09-30T12:27:05.861Z,53120.00
2022-09-30T12:28:05.884Z,55104.00
2022-09-30T12:29:05.829Z,57568.00
2022-09-30T12:30:05.814Z,60224.00
2022-09-30T12:31:05.821Z,61088.00
2022-09-30T12:32:05.814Z,59584.00
2022-09-30T12:33:05.782Z,56928.00
2022-09-30T12:34:05.758Z,56192.00
2022-09-30T12:35:05.755Z,59072.00
2022-09-30T12:36:05.752Z,15732.00
2022-09-30T12:37:05.725Z,14152.00
2022-09-30T12:38:05.701Z,36544.00
2022-09-30T12:39:05.688Z,63040.00
2022-09-30T12:40:05.747Z,53056.00
2022-09-30T12:41:05.678Z,25600.00
2022-09-30T12:42:05.643Z,23296.00
2022-09-30T12:43:05.641Z,49120.00
2022-09-30T12:44:05.628Z,40192.00
2022-09-30T12:45:05.603Z,16092.00
2022-09-30T12:46:05.688Z,13744.00
2022-09-30T12:52:07.304Z,58560.00
2022-09-30T12:57:00.570Z,57632.00
2022-09-30T12:58:00.483Z,12648.00
2022-09-30T12:59:00.475Z,15244.00
2022-09-30T13:00:00.465Z,18240.00
2022-09-30T13:01:00.543Z,52704.00
2022-09-30T13:02:00.477Z,57184.00
2022-09-30T13:03:00.442Z,57376.00
2022-09-30T13:04:00.398Z,58176.00
2022-09-30T13:05:00.391Z,57024.00
2022-09-30T13:06:00.372Z,55648.00
2022-09-30T13:07:00.381Z,22304.00
2022-09-30T13:08:00.357Z,50432.00
2022-09-30T13:09:01.166Z,50240.00
2022-09-30T13:10:00.323Z,56576.00
2022-09-30T13:11:36.222Z,29184.00
2022-09-30T13:12:36.182Z,15032.00
2022-09-30T13:13:36.175Z,55008.00
2022-09-30T13:14:36.175Z,54944.00
2022-09-30T13:15:36.153Z,55232.00
2022-09-30T13:16:36.614Z,50368.00
2022-09-30T13:17:36.148Z,45184.00
2022-09-30T13:18:36.106Z,43488.00
2022-09-30T13:19:36.101Z,50944.00
2022-09-30T13:20:36.082Z,54720.00
2022-09-30T13:21:36.062Z,53728.00
2022-09-30T13:22:36.076Z,52192.00
2022-09-30T13:49:59.782Z,54944.00
2022-09-30T13:50:59.766Z,54656.00
2022-09-30T13:51:59.747Z,55296.00
2022-09-30T13:52:59.746Z,53152.00
2022-09-30T13:53:59.717Z,50976.00
2022-09-30T13:54:59.692Z,51232.00
2022-09-30T13:55:59.676Z,49472.00
2022-09-30T13:56:59.682Z,47136.00
2022-09-30T13:57:59.647Z,48544.00
2022-09-30T13:58:59.637Z,46144.00
2022-09-30T13:59:59.639Z,42528.00
2022-09-30T14:00:59.698Z,27008.00
2022-09-30T14:01:59.617Z,10176.00
2022-09-30T14:23:14.004Z,41600.00
2022-09-30T14:24:13.974Z,42880.00
2022-09-30T14:25:13.964Z,40352.00
2022-09-30T14:26:13.945Z,40224.00
2022-09-30T14:27:13.949Z,40736.00
2022-09-30T14:28:14.121Z,41472.00
2022-09-30T14:29:13.916Z,40896.00
2022-09-30T14:30:13.901Z,38752.00
2022-09-30T14:31:14.092Z,37728.00
2022-09-30T14:32:13.907Z,37952.00
2022-09-30T14:33:13.865Z,38304.00
2022-09-30T14:34:13.858Z,39456.00
2022-09-30T14:36:45.416Z,36320.00
2022-09-30T14:37:45.392Z,36416.00
2022-09-30T14:38:45.380Z,36800.00
2022-09-30T14:39:45.373Z,37760.00
2022-09-30T14:40:45.362Z,36960.00
2022-09-30T14:41:45.401Z,25760.00
2022-09-30T14:42:45.347Z,10708.00
2022-09-30T14:43:45.332Z,6712.00
2022-09-30T14:44:45.324Z,6180.00
2022-09-30T14:45:45.351Z,5864.00
